Time;durP1;ratioP1;P1;durP2;ratioP2;P2;SDS_P1;SDS_P2;PMS_P1;PMS_P2;Temp;Humidity;BMP_temperature;BMP_pressure;BME280_temperature;BME280_humidity;BME280_pressure;Samples;Min_cycle;Max_cycle;Signal;HPM_P1;HPM_P2
2024/04/05 00:01:58;;;;;;;15.02;1.73;;;;;;;;;;5042133;28;20052;-66
2024/04/05 00:04:27;;;;;;;18.70;2.80;;;;;;;;;;5034566;28;20075;-66
2024/04/05 00:06:54;;;;;;;12.27;2.17;;;;;;;;;;5046303;28;20115;-66
2024/04/05 00:09:20;;;;;;;13.10;2.10;;;;;;;;;;5046551;28;20137;-67
2024/04/05 00:11:47;;;;;;;19.17;2.08;;;;;;;;;;5046486;28;20097;-66
2024/04/05 00:14:12;;;;;;;10.90;1.85;;;;;;;;;;5038871;28;20131;-68
2024/04/05 00:16:39;;;;;;;18.45;3.08;;;;;;;;;;5022007;28;20139;-66
2024/04/05 00:19:05;;;;;;;15.27;3.00;;;;;;;;;;5043748;28;20053;-69
2024/04/05 00:21:33;;;;;;;21.35;3.72;;;;;;;;;;5032587;28;20110;-68
2024/04/05 00:24:00;;;;;;;14.35;1.95;;;;;;;;;;5030029;28;20129;-68
2024/04/05 00:26:27;;;;;;;11.90;2.15;;;;;;;;;;5027100;28;20095;-67
2024/04/05 00:28:53;;;;;;;16.95;2.45;;;;;;;;;;5036117;28;20050;-69
2024/04/05 00:31:19;;;;;;;13.73;2.58;;;;;;;;;;5037570;28;20122;-67
2024/04/05 00:33:45;;;;;;;15.10;2.15;;;;;;;;;;5023136;28;20567;-66
2024/04/05 00:36:14;;;;;;;16.20;2.42;;;;;;;;;;5035191;28;20073;-66
2024/04/05 00:38:42;;;;;;;19.02;2.33;;;;;;;;;;5036074;28;20140;-68
2024/04/05 00:41:08;;;;;;;15.68;2.38;;;;;;;;;;5033587;28;20050;-66
2024/04/05 00:43:35;;;;;;;19.52;2.03;;;;;;;;;;5026369;28;20060;-66
2024/04/05 00:46:02;;;;;;;18.67;2.33;;;;;;;;;;5020703;28;20068;-67
2024/04/05 00:48:27;;;;;;;14.50;2.30;;;;;;;;;;5046435;28;20057;-66
2024/04/05 00:50:56;;;;;;;16.25;2.90;;;;;;;;;;5028535;28;20150;-67
2024/04/05 00:53:25;;;;;;;14.88;3.85;;;;;;;;;;5022626;28;20070;-66
2024/04/05 00:55:54;;;;;;;18.95;2.15;;;;;;;;;;5023040;28;20056;-65
2024/04/05 00:58:21;;;;;;;11.88;2.20;;;;;;;;;;5016176;28;20044;-68
2024/04/05 01:00:47;;;;;;;12.23;2.55;;;;;;;;;;5029166;28;20060;-69
2024/04/05 01:03:13;;;;;;;13.48;1.92;;;;;;;;;;5010508;28;20170;-68
2024/04/05 01:05:40;;;;;;;18.92;2.45;;;;;;;;;;5009723;28;20077;-67
2024/04/05 01:08:08;;;;;;;15.85;2.20;;;;;;;;;;5013783;28;20056;-65
2024/04/05 01:10:35;;;;;;;18.17;2.20;;;;;;;;;;5015387;28;20068;-67
2024/04/05 01:13:04;;;;;;;17.75;2.30;;;;;;;;;;4998032;28;20042;-67
2024/04/05 01:15:32;;;;;;;23.42;2.58;;;;;;;;;;5019912;28;20061;-67
2024/04/05 01:17:59;;;;;;;11.18;1.65;;;;;;;;;;5025517;28;20100;-66
2024/04/05 01:20:29;;;;;;;14.07;1.98;;;;;;;;;;5009732;28;20055;-67
2024/04/05 01:22:59;;;;;;;19.38;2.20;;;;;;;;;;5025913;28;20060;-68
2024/04/05 01:25:27;;;;;;;10.40;1.88;;;;;;;;;;5021708;28;20111;-67
2024/04/05 01:27:53;;;;;;;11.88;1.90;;;;;;;;;;5030885;28;20049;-69
2024/04/05 01:30:20;;;;;;;9.02;1.30;;;;;;;;;;5031837;28;20084;-68
2024/04/05 01:32:52;;;;;;;9.57;2.05;;;;;;;;;;5044076;28;20049;-67
2024/04/05 01:35:19;;;;;;;12.93;2.10;;;;;;;;;;5032917;28;20056;-68
2024/04/05 01:37:44;;;;;;;11.55;1.63;;;;;;;;;;5036000;28;20041;-66
2024/04/05 01:40:11;;;;;;;14.35;2.17;;;;;;;;;;5034541;28;20123;-67
2024/04/05 01:42:39;;;;;;;14.35;1.90;;;;;;;;;;5024477;28;20056;-67
2024/04/05 01:45:05;;;;;;;14.82;1.88;;;;;;;;;;5023055;28;20192;-66
2024/04/05 01:47:31;;;;;;;26.13;2.45;;;;;;;;;;5023887;28;20101;-68
2024/04/05 01:49:58;;;;;;;14.80;1.75;;;;;;;;;;5032058;28;20157;-69
2024/04/05 01:52:24;;;;;;;13.10;1.65;;;;;;;;;;5027257;28;20044;-66
2024/04/05 01:54:52;;;;;;;13.77;2.05;;;;;;;;;;5014309;28;20068;-65
2024/04/05 01:57:17;;;;;;;9.85;1.77;;;;;;;;;;5023024;28;20056;-65
2024/04/05 01:59:48;;;;;;;15.18;2.20;;;;;;;;;;5018252;28;20072;-65
2024/04/05 02:02:14;;;;;;;15.60;2.17;;;;;;;;;;5026610;28;20049;-69
2024/04/05 02:04:41;;;;;;;12.13;1.92;;;;;;;;;;4999331;28;20057;-68
2024/04/05 02:07:06;;;;;;;13.25;1.90;;;;;;;;;;5029303;28;20110;-67
2024/04/05 02:09:33;;;;;;;16.20;1.75;;;;;;;;;;5036990;28;20057;-68
2024/04/05 02:11:59;;;;;;;11.23;1.73;;;;;;;;;;5029128;28;20074;-64
2024/04/05 02:14:26;;;;;;;13.80;2.17;;;;;;;;;;5028967;28;20165;-68
2024/04/05 02:16:54;;;;;;;12.77;1.52;;;;;;;;;;5031671;28;20041;-66
2024/04/05 02:19:21;;;;;;;9.43;1.88;;;;;;;;;;5029840;28;20041;-67
2024/04/05 02:21:46;;;;;;;11.60;1.70;;;;;;;;;;5034894;28;20103;-68
2024/04/05 02:24:13;;;;;;;11.50;2.20;;;;;;;;;;5027768;28;20052;-65
2024/04/05 02:26:39;;;;;;;16.45;2.35;;;;;;;;;;5045308;28;20049;-65
2024/04/05 02:29:05;;;;;;;15.75;2.00;;;;;;;;;;5038761;28;20075;-68
2024/04/05 02:31:31;;;;;;;15.57;2.50;;;;;;;;;;5026519;28;20126;-65
2024/04/05 02:34:00;;;;;;;8.48;1.40;;;;;;;;;;5023886;28;20065;-67
2024/04/05 02:36:26;;;;;;;7.93;1.55;;;;;;;;;;5027207;28;20045;-69
2024/04/05 02:38:52;;;;;;;13.82;2.08;;;;;;;;;;5029518;28;20056;-65
2024/04/05 02:41:18;;;;;;;11.27;1.90;;;;;;;;;;5020063;28;20077;-66
2024/04/05 02:43:45;;;;;;;9.18;1.42;;;;;;;;;;5031030;28;20150;-67
2024/04/05 02:46:11;;;;;;;15.43;1.73;;;;;;;;;;5029590;28;20045;-68
2024/04/05 02:48:37;;;;;;;13.70;1.60;;;;;;;;;;5034214;28;20072;-68
2024/04/05 02:51:05;;;;;;;14.02;1.77;;;;;;;;;;5035232;28;20056;-65
2024/04/05 02:53:32;;;;;;;13.30;1.85;;;;;;;;;;5012641;28;20054;-66
2024/04/05 02:55:58;;;;;;;10.70;1.88;;;;;;;;;;5011371;28;20049;-67
2024/04/05 02:58:25;;;;;;;11.70;2.03;;;;;;;;;;5030780;28;20119;-68
2024/04/05 03:00:54;;;;;;;17.27;2.00;;;;;;;;;;5031907;28;20068;-68
2024/04/05 03:03:20;;;;;;;;;;;;;;;;;;5030985;28;20051;-67
2024/04/05 03:05:46;;;;;;;16.77;2.42;;;;;;;;;;5016524;28;19925;-69
2024/04/05 03:08:14;;;;;;;16.23;2.10;;;;;;;;;;5023027;28;20107;-68
2024/04/05 03:10:40;;;;;;;20.95;2.53;;;;;;;;;;5044655;28;20045;-68
2024/04/05 03:13:07;;;;;;;12.65;2.58;;;;;;;;;;5036233;28;20056;-65
2024/04/05 03:15:33;;;;;;;14.85;2.70;;;;;;;;;;5016944;28;20088;-67
2024/04/05 03:18:00;;;;;;;10.90;2.50;;;;;;;;;;5033926;28;21103;-66
2024/04/05 03:20:26;;;;;;;13.43;3.08;;;;;;;;;;5021462;28;20046;-67
2024/04/05 03:22:54;;;;;;;18.52;3.83;;;;;;;;;;5030540;28;20068;-66
2024/04/05 03:25:21;;;;;;;16.85;4.75;;;;;;;;;;5028913;28;20132;-69
2024/04/05 03:27:48;;;;;;;22.80;4.53;;;;;;;;;;5026459;28;20045;-67
2024/04/05 03:30:14;;;;;;;16.27;3.65;;;;;;;;;;5031290;28;20072;-66
2024/04/05 03:32:41;;;;;;;13.63;3.15;;;;;;;;;;5029156;28;20061;-69
2024/04/05 03:35:07;;;;;;;15.68;3.83;;;;;;;;;;5018193;28;20084;-67
2024/04/05 03:37:34;;;;;;;15.85;3.60;;;;;;;;;;5017553;28;20041;-67
2024/04/05 03:40:01;;;;;;;13.38;3.08;;;;;;;;;;5018424;28;20048;-67
2024/04/05 03:42:29;;;;;;;11.32;3.25;;;;;;;;;;5039427;28;20065;-69
2024/04/05 03:44:55;;;;;;;;;;;;;;;;;;5031172;28;20072;-68
2024/04/05 03:47:22;;;;;;;15.32;3.13;;;;;;;;;;5035336;28;20018;-69
2024/04/05 03:49:47;;;;;;;15.02;3.40;;;;;;;;;;5034407;28;20189;-66
2024/04/05 03:52:14;;;;;;;17.65;3.28;;;;;;;;;;5024478;28;20060;-67
2024/04/05 03:54:40;;;;;;;14.98;3.50;;;;;;;;;;5018361;28;20100;-69
2024/04/05 03:57:07;;;;;;;19.55;3.72;;;;;;;;;;5027743;28;20167;-68
2024/04/05 03:59:34;;;;;;;16.88;3.55;;;;;;;;;;5027654;28;20053;-67
2024/04/05 04:02:01;;;;;;;29.40;3.83;;;;;;;;;;5038288;28;20045;-67
2024/04/05 04:04:29;;;;;;;12.15;3.10;;;;;;;;;;5037935;28;20056;-70
2024/04/05 04:06:57;;;;;;;17.63;3.72;;;;;;;;;;5032590;28;20049;-68
2024/04/05 04:09:24;;;;;;;16.37;3.43;;;;;;;;;;5030285;28;20212;-69
2024/04/05 04:11:50;;;;;;;17.73;3.65;;;;;;;;;;5038567;28;20304;-69
2024/04/05 04:14:16;;;;;;;16.05;3.55;;;;;;;;;;5012854;28;20052;-68
2024/04/05 04:16:45;;;;;;;12.50;2.70;;;;;;;;;;5039051;28;20045;-67
2024/04/05 04:19:11;;;;;;;13.75;3.25;;;;;;;;;;5015270;28;20057;-69
2024/04/05 04:21:37;;;;;;;10.90;2.35;;;;;;;;;;5030729;28;20050;-68
2024/04/05 04:24:03;;;;;;;12.23;2.42;;;;;;;;;;5041583;28;21796;-68
2024/04/05 04:26:30;;;;;;;12.73;2.13;;;;;;;;;;5039437;28;20053;-68
2024/04/05 04:28:57;;;;;;;15.13;1.98;;;;;;;;;;5037440;28;20037;-69
2024/04/05 04:31:25;;;;;;;11.60;1.77;;;;;;;;;;5032992;28;20045;-66
2024/04/05 04:33:53;;;;;;;11.52;2.30;;;;;;;;;;5023910;28;20064;-67
2024/04/05 04:36:20;;;;;;;10.37;1.83;;;;;;;;;;5024591;28;20053;-67
2024/04/05 04:38:46;;;;;;;15.15;2.30;;;;;;;;;;5026811;28;20315;-67
2024/04/05 04:41:13;;;;;;;11.63;2.00;;;;;;;;;;5032766;28;20151;-70
2024/04/05 04:43:39;;;;;;;11.43;2.17;;;;;;;;;;5027085;28;20049;-69
2024/04/05 04:46:06;;;;;;;18.92;2.22;;;;;;;;;;5030434;28;20060;-69
2024/04/05 04:48:31;;;;;;;11.05;1.60;;;;;;;;;;5013554;28;20049;-69
2024/04/05 04:51:00;;;;;;;11.10;2.35;;;;;;;;;;5018157;28;20079;-67
2024/04/05 04:53:26;;;;;;;13.63;2.05;;;;;;;;;;5015040;28;20057;-69
2024/04/05 04:55:53;;;;;;;16.17;2.13;;;;;;;;;;5013418;28;20126;-68
2024/04/05 04:58:22;;;;;;;14.68;2.47;;;;;;;;;;5026441;28;20057;-66
2024/04/05 05:00:49;;;;;;;18.38;2.30;;;;;;;;;;5007289;28;20053;-68
2024/04/05 05:03:16;;;;;;;10.30;2.13;;;;;;;;;;5043885;28;20178;-67
2024/04/05 05:05:43;;;;;;;7.13;1.70;;;;;;;;;;5030114;28;20057;-69
2024/04/05 05:08:11;;;;;;;7.75;1.90;;;;;;;;;;5045676;28;20132;-67
2024/04/05 05:10:38;;;;;;;9.23;2.10;;;;;;;;;;5028581;28;20053;-66
2024/04/05 05:13:04;;;;;;;8.10;2.40;;;;;;;;;;5022970;28;20332;-65
2024/04/05 05:15:35;;;;;;;9.82;1.92;;;;;;;;;;5008324;28;20128;-65
2024/04/05 05:18:00;;;;;;;10.27;2.05;;;;;;;;;;5020184;28;20184;-68
2024/04/05 05:20:27;;;;;;;10.35;2.13;;;;;;;;;;5032913;28;20054;-66
2024/04/05 05:22:53;;;;;;;16.98;2.47;;;;;;;;;;5024362;28;20139;-69
2024/04/05 05:25:22;;;;;;;9.27;1.85;;;;;;;;;;5023452;28;20045;-68
2024/04/05 05:27:50;;;;;;;10.05;2.15;;;;;;;;;;5016117;28;20044;-67
2024/04/05 05:30:18;;;;;;;12.15;2.15;;;;;;;;;;5027196;28;20049;-67
2024/04/05 05:32:44;;;;;;;9.32;1.83;;;;;;;;;;5020378;28;20062;-66
2024/04/05 05:35:11;;;;;;;10.00;2.53;;;;;;;;;;5009155;28;20046;-68
2024/04/05 05:37:37;;;;;;;13.07;2.10;;;;;;;;;;5014414;28;20058;-70
2024/04/05 05:40:08;;;;;;;10.27;1.40;;;;;;;;;;5018701;28;20060;-66
2024/04/05 05:42:35;;;;;;;12.07;1.80;;;;;;;;;;5007444;28;20054;-67
2024/04/05 05:45:02;;;;;;;11.38;1.90;;;;;;;;;;5019386;28;20045;-69
2024/04/05 05:47:28;;;;;;;10.00;2.00;;;;;;;;;;5032316;28;20098;-68
2024/04/05 05:49:58;;;;;;;8.30;1.67;;;;;;;;;;5038813;28;20140;-68
2024/04/05 05:52:24;;;;;;;6.80;1.80;;;;;;;;;;5025881;28;20099;-68
2024/04/05 05:54:52;;;;;;;8.68;1.73;;;;;;;;;;5015242;28;20049;-65
2024/04/05 05:57:18;;;;;;;9.13;1.98;;;;;;;;;;5027486;28;20097;-67
2024/04/05 05:59:47;;;;;;;9.07;2.08;;;;;;;;;;5021350;28;20053;-68
2024/04/05 06:02:15;;;;;;;10.93;1.92;;;;;;;;;;5037231;28;20076;-67
2024/04/05 06:04:42;;;;;;;5.22;1.70;;;;;;;;;;5020801;28;20045;-68
2024/04/05 06:07:08;;;;;;;10.50;1.88;;;;;;;;;;5035038;28;20053;-66
2024/04/05 06:09:35;;;;;;;9.90;1.70;;;;;;;;;;5022979;28;20096;-68
2024/04/05 06:12:01;;;;;;;9.68;1.85;;;;;;;;;;5023368;28;20156;-66
2024/04/05 06:14:28;;;;;;;9.02;1.50;;;;;;;;;;5016075;28;20195;-68
2024/04/05 06:16:57;;;;;;;10.23;1.80;;;;;;;;;;5026991;28;20060;-68
2024/04/05 06:19:24;;;;;;;8.93;1.83;;;;;;;;;;5040029;28;20136;-65
2024/04/05 06:21:50;;;;;;;8.18;1.92;;;;;;;;;;5028094;28;20083;-68
2024/04/05 06:24:17;;;;;;;8.77;1.75;;;;;;;;;;5030549;28;20108;-67
2024/04/05 06:26:42;;;;;;;5.80;1.55;;;;;;;;;;5031752;28;20053;-64
2024/04/05 06:29:09;;;;;;;13.80;1.95;;;;;;;;;;5019530;28;20065;-67
2024/04/05 06:31:35;;;;;;;6.93;1.77;;;;;;;;;;5028793;28;20051;-66
2024/04/05 06:34:04;;;;;;;3.85;1.23;;;;;;;;;;5024307;28;20136;-66
2024/04/05 06:36:30;;;;;;;10.25;1.70;;;;;;;;;;5007334;28;20053;-67
2024/04/05 06:38:58;;;;;;;7.70;1.50;;;;;;;;;;5037221;28;20060;-67
2024/04/05 06:41:25;;;;;;;10.23;2.00;;;;;;;;;;5016939;28;20128;-68
2024/04/05 06:43:52;;;;;;;10.70;1.63;;;;;;;;;;5023489;28;20053;-67
2024/04/05 06:46:19;;;;;;;8.88;1.77;;;;;;;;;;5032961;28;20041;-72
2024/04/05 06:48:46;;;;;;;13.65;2.85;;;;;;;;;;5033172;28;20037;-66
2024/04/05 06:51:16;;;;;;;12.00;3.00;;;;;;;;;;5019738;28;20057;-67
2024/04/05 06:53:43;;;;;;;7.78;2.10;;;;;;;;;;5027328;28;20055;-66
2024/04/05 06:56:10;;;;;;;11.75;2.10;;;;;;;;;;5010816;28;20139;-65
2024/04/05 06:58:37;;;;;;;9.40;2.05;;;;;;;;;;5029234;28;20717;-67
2024/04/05 07:01:05;;;;;;;13.48;2.78;;;;;;;;;;5025504;28;20051;-68
2024/04/05 07:03:32;;;;;;;7.13;2.53;;;;;;;;;;5032448;28;20221;-67
2024/04/05 07:06:00;;;;;;;13.75;2.40;;;;;;;;;;5024689;28;20045;-68
2024/04/05 07:08:30;;;;;;;8.73;2.75;;;;;;;;;;5024135;28;20053;-67
2024/04/05 07:10:56;;;;;;;7.05;2.38;;;;;;;;;;5031762;28;20164;-65
2024/04/05 07:13:23;;;;;;;12.13;1.85;;;;;;;;;;5021624;28;20061;-65
2024/04/05 07:15:49;;;;;;;9.63;1.80;;;;;;;;;;5008678;28;20050;-67
2024/04/05 07:18:18;;;;;;;11.20;1.70;;;;;;;;;;5018242;28;20107;-69
2024/04/05 07:20:44;;;;;;;13.73;2.25;;;;;;;;;;5030374;28;20060;-66
2024/04/05 07:23:11;;;;;;;7.75;2.15;;;;;;;;;;5034985;28;20045;-68
2024/04/05 07:25:38;;;;;;;5.95;1.63;;;;;;;;;;5034843;28;20056;-68
2024/04/05 07:28:06;;;;;;;5.55;1.65;;;;;;;;;;5053729;28;20071;-69
2024/04/05 07:30:33;;;;;;;7.63;1.52;;;;;;;;;;5023476;28;20049;-66
2024/04/05 07:33:00;;;;;;;10.10;1.77;;;;;;;;;;5034754;28;20045;-68
2024/04/05 07:35:26;;;;;;;8.18;2.00;;;;;;;;;;5030781;28;20064;-65
2024/04/05 07:37:55;;;;;;;6.32;2.10;;;;;;;;;;5036934;28;20052;-68
2024/04/05 07:40:22;;;;;;;8.13;1.88;;;;;;;;;;5036364;28;20119;-66
2024/04/05 07:42:51;;;;;;;8.98;4.35;;;;;;;;;;5041999;28;20059;-67
2024/04/05 07:45:17;;;;;;;13.60;4.88;;;;;;;;;;5020883;28;20045;-66
2024/04/05 07:47:47;;;;;;;10.75;2.45;;;;;;;;;;5033499;28;20158;-67
2024/04/05 07:50:13;;;;;;;13.85;3.50;;;;;;;;;;5041257;28;20057;-66
2024/04/05 07:52:40;;;;;;;4.60;1.83;;;;;;;;;;5026437;28;20063;-69
2024/04/05 07:55:06;;;;;;;16.65;2.03;;;;;;;;;;5037362;28;20061;-68
2024/04/05 07:57:35;;;;;;;3.25;1.23;;;;;;;;;;5030040;28;20045;-69
2024/04/05 08:00:05;;;;;;;9.77;2.17;;;;;;;;;;5026989;28;20053;-67
2024/04/05 08:02:32;;;;;;;10.45;1.73;;;;;;;;;;5051094;28;20076;-67
2024/04/05 08:04:58;;;;;;;13.27;1.75;;;;;;;;;;5030476;28;20052;-69
2024/04/05 08:07:25;;;;;;;5.43;1.73;;;;;;;;;;5024459;28;20132;-69
2024/04/05 08:09:53;;;;;;;5.65;1.65;;;;;;;;;;5042045;28;20144;-67
2024/04/05 08:12:21;;;;;;;12.45;2.30;;;;;;;;;;5032141;28;20052;-69
2024/04/05 08:14:49;;;;;;;8.40;1.98;;;;;;;;;;5023800;28;20053;-68
2024/04/05 08:17:18;;;;;;;9.23;2.28;;;;;;;;;;5044342;28;20135;-69
2024/04/05 08:19:43;;;;;;;9.82;1.92;;;;;;;;;;5028697;28;20057;-68
2024/04/05 08:22:11;;;;;;;8.80;2.10;;;;;;;;;;5021800;28;20041;-71
2024/04/05 08:24:36;;;;;;;6.07;2.38;;;;;;;;;;5016494;28;20076;-67
2024/04/05 08:27:03;;;;;;;6.38;2.10;;;;;;;;;;5025775;28;20414;-67
2024/04/05 08:29:29;;;;;;;12.07;2.08;;;;;;;;;;5031407;28;20130;-68
2024/04/05 08:31:56;;;;;;;7.90;2.08;;;;;;;;;;5029804;28;20096;-67
2024/04/05 08:34:23;;;;;;;8.95;1.73;;;;;;;;;;5027677;28;20060;-68
2024/04/05 08:36:51;;;;;;;9.02;1.70;;;;;;;;;;5016343;28;20144;-68
2024/04/05 08:39:17;;;;;;;5.37;2.30;;;;;;;;;;5044134;28;20124;-70
2024/04/05 08:41:47;;;;;;;5.63;1.52;;;;;;;;;;5029247;28;20072;-69
2024/04/05 08:44:13;;;;;;;7.65;1.63;;;;;;;;;;5025789;28;20129;-68
2024/04/05 08:46:40;;;;;;;6.13;1.25;;;;;;;;;;5018565;28;20930;-67
2024/04/05 08:49:07;;;;;;;7.22;1.65;;;;;;;;;;5025007;28;20055;-67
2024/04/05 08:51:36;;;;;;;4.93;1.33;;;;;;;;;;5035500;28;20048;-68
2024/04/05 08:54:02;;;;;;;4.05;1.20;;;;;;;;;;5021254;28;20041;-67
2024/04/05 08:56:30;;;;;;;3.55;1.35;;;;;;;;;;5023095;28;20052;-70
2024/04/05 08:58:59;;;;;;;9.52;1.40;;;;;;;;;;5038391;28;20049;-67
2024/04/05 09:01:26;;;;;;;6.82;1.70;;;;;;;;;;5041688;28;20057;-69
2024/04/05 09:03:52;;;;;;;11.88;2.55;;;;;;;;;;5038404;28;20078;-67
2024/04/05 09:06:20;;;;;;;8.82;1.52;;;;;;;;;;5035281;28;20228;-70
2024/04/05 09:08:49;;;;;;;5.60;1.75;;;;;;;;;;5027111;28;20059;-69
2024/04/05 09:11:23;;;;;;;9.27;1.38;;;;;;;;;;5023987;28;20049;-69
2024/04/05 09:13:56;;;;;;;7.80;1.45;;;;;;;;;;5022641;28;20053;-68
2024/04/05 09:16:24;;;;;;;2.50;1.02;;;;;;;;;;5023030;28;20058;-70
2024/04/05 09:18:50;;;;;;;7.80;1.88;;;;;;;;;;5028660;28;20063;-69
2024/04/05 09:21:18;;;;;;;8.65;1.73;;;;;;;;;;5029393;28;20136;-68
2024/04/05 09:23:45;;;;;;;5.03;1.77;;;;;;;;;;5016247;28;20053;-68
2024/04/05 09:26:18;;;;;;;12.15;2.03;;;;;;;;;;5029552;28;20049;-69
2024/04/05 09:28:46;;;;;;;6.35;1.75;;;;;;;;;;5031001;28;20057;-70
2024/04/05 09:31:19;;;;;;;4.80;1.52;;;;;;;;;;5036084;28;20099;-69
2024/04/05 09:33:47;;;;;;;6.47;1.67;;;;;;;;;;5033619;28;20056;-68
2024/04/05 09:36:19;;;;;;;9.93;1.85;;;;;;;;;;5004482;28;20049;-69
2024/04/05 09:38:45;;;;;;;6.53;1.65;;;;;;;;;;5030225;28;20072;-69
2024/04/05 09:41:15;;;;;;;6.45;1.85;;;;;;;;;;5031531;28;21627;-68
2024/04/05 09:43:43;;;;;;;6.20;2.05;;;;;;;;;;5033949;28;20091;-69
2024/04/05 09:46:14;;;;;;;5.72;1.58;;;;;;;;;;4972688;28;20143;-68
2024/04/05 09:48:40;;;;;;;6.15;2.10;;;;;;;;;;5036950;28;20038;-70
2024/04/05 09:51:16;;;;;;;7.93;1.50;;;;;;;;;;5022935;28;20075;-72
2024/04/05 09:53:45;;;;;;;9.30;2.10;;;;;;;;;;5029304;28;20076;-71
2024/04/05 09:56:12;;;;;;;;;;;;;;;;;;5021506;28;20053;-71
2024/04/05 09:58:40;;;;;;;4.68;1.80;;;;;;;;;;5028152;28;19935;-69
2024/04/05 10:01:10;;;;;;;4.78;1.98;;;;;;;;;;5025045;28;20036;-68
2024/04/05 10:03:36;;;;;;;5.93;2.30;;;;;;;;;;5053415;28;20057;-69
2024/04/05 10:06:13;;;;;;;9.75;2.15;;;;;;;;;;5022131;28;20045;-70
2024/04/05 10:08:39;;;;;;;6.00;1.33;;;;;;;;;;5051912;28;20131;-68
2024/04/05 10:11:14;;;;;;;8.73;2.03;;;;;;;;;;5033097;28;20055;-72
2024/04/05 10:13:41;;;;;;;11.63;2.30;;;;;;;;;;5039776;28;20041;-70
2024/04/05 10:16:12;;;;;;;8.52;1.90;;;;;;;;;;5022078;28;20050;-69
2024/04/05 10:18:39;;;;;;;9.75;2.33;;;;;;;;;;5018008;28;20048;-70
2024/04/05 10:21:08;;;;;;;8.90;1.85;;;;;;;;;;5025504;28;20040;-71
2024/04/05 10:23:35;;;;;;;4.78;2.00;;;;;;;;;;5031507;28;20081;-71
2024/04/05 10:26:02;;;;;;;7.60;2.00;;;;;;;;;;5016511;28;20053;-72
2024/04/05 10:28:28;;;;;;;8.73;2.35;;;;;;;;;;5032186;28;20049;-70
2024/04/05 10:31:01;;;;;;;6.82;2.22;;;;;;;;;;5024631;28;20080;-69
2024/04/05 10:33:27;;;;;;;4.63;1.85;;;;;;;;;;5027161;28;20182;-71
2024/04/05 10:35:59;;;;;;;4.32;1.80;;;;;;;;;;5007353;28;20071;-71
2024/04/05 10:38:27;;;;;;;6.05;1.88;;;;;;;;;;5030048;28;20068;-71
2024/04/05 10:40:57;;;;;;;9.15;1.65;;;;;;;;;;5040691;28;20061;-71
2024/04/05 10:43:23;;;;;;;6.68;1.83;;;;;;;;;;5040151;28;20105;-72
2024/04/05 10:45:53;;;;;;;5.65;1.60;;;;;;;;;;5031204;28;20127;-69
2024/04/05 10:48:21;;;;;;;3.55;1.70;;;;;;;;;;5025992;28;20090;-69
2024/04/05 10:50:49;;;;;;;8.00;2.13;;;;;;;;;;5033883;28;20057;-69
2024/04/05 10:53:16;;;;;;;9.77;2.15;;;;;;;;;;5036726;28;20056;-68
2024/04/05 10:55:44;;;;;;;5.85;1.80;;;;;;;;;;5016434;28;20065;-69
2024/04/05 10:58:10;;;;;;;7.93;1.90;;;;;;;;;;5031485;28;20051;-71
2024/04/05 11:00:39;;;;;;;6.82;1.85;;;;;;;;;;5031333;28;20040;-71
2024/04/05 11:03:07;;;;;;;6.50;2.15;;;;;;;;;;5027822;28;20053;-68
2024/04/05 11:05:36;;;;;;;5.32;1.77;;;;;;;;;;5029226;28;20111;-69
2024/04/05 11:08:03;;;;;;;4.75;1.42;;;;;;;;;;5027126;28;20060;-71
2024/04/05 11:10:32;;;;;;;5.28;1.45;;;;;;;;;;5018157;28;20048;-68
2024/04/05 11:12:58;;;;;;;10.00;1.52;;;;;;;;;;5022682;28;20049;-69
2024/04/05 11:15:25;;;;;;;5.63;1.33;;;;;;;;;;5009802;28;20053;-71
2024/04/05 11:17:58;;;;;;;9.57;1.38;;;;;;;;;;5034542;28;20114;-68
2024/04/05 11:20:29;;;;;;;5.22;1.20;;;;;;;;;;5022799;28;20052;-71
2024/04/05 11:23:00;;;;;;;3.75;1.50;;;;;;;;;;5048133;28;20044;-70
2024/04/05 11:25:29;;;;;;;1.70;0.95;;;;;;;;;;5038187;28;20056;-68
2024/04/05 11:27:57;;;;;;;3.22;1.33;;;;;;;;;;5031007;28;20049;-68
2024/04/05 11:30:25;;;;;;;11.82;1.90;;;;;;;;;;5012889;28;20118;-70
2024/04/05 11:32:51;;;;;;;6.85;1.17;;;;;;;;;;5047893;28;20044;-70
2024/04/05 11:35:18;;;;;;;4.85;1.10;;;;;;;;;;5015994;28;20054;-69
2024/04/05 11:37:43;;;;;;;4.45;1.13;;;;;;;;;;5039532;28;20055;-69
2024/04/05 11:40:15;;;;;;;5.32;0.95;;;;;;;;;;5020548;28;20037;-67
2024/04/05 11:42:41;;;;;;;5.57;1.48;;;;;;;;;;5039976;28;20072;-68
2024/04/05 11:45:09;;;;;;;2.03;0.93;;;;;;;;;;5017811;28;20053;-68
2024/04/05 11:47:38;;;;;;;1.60;0.82;;;;;;;;;;5028457;28;20053;-71
2024/04/05 11:50:09;;;;;;;3.42;1.35;;;;;;;;;;5031964;28;20056;-69
2024/04/05 11:52:35;;;;;;;3.22;1.00;;;;;;;;;;5015667;28;20560;-71
2024/04/05 11:55:02;;;;;;;10.23;1.67;;;;;;;;;;5016867;28;20136;-69
2024/04/05 11:57:30;;;;;;;4.75;1.00;;;;;;;;;;5030359;28;20204;-68
2024/04/05 11:59:58;;;;;;;3.08;1.02;;;;;;;;;;5035239;28;20135;-69
2024/04/05 12:02:24;;;;;;;3.40;1.10;;;;;;;;;;5037927;28;20163;-68
2024/04/05 12:04:52;;;;;;;5.25;1.20;;;;;;;;;;5019084;28;20071;-69
2024/04/05 12:07:18;;;;;;;3.67;1.30;;;;;;;;;;5050592;28;20039;-70
2024/04/05 12:09:45;;;;;;;5.80;1.00;;;;;;;;;;5031913;28;20135;-70
2024/04/05 12:12:11;;;;;;;4.65;1.20;;;;;;;;;;5032701;28;20057;-67
2024/04/05 12:14:39;;;;;;;2.08;0.90;;;;;;;;;;5026481;28;20076;-70
2024/04/05 12:17:09;;;;;;;6.88;1.30;;;;;;;;;;5035036;28;20053;-68
2024/04/05 12:19:37;;;;;;;2.90;0.80;;;;;;;;;;5039121;28;20087;-69
2024/04/05 12:22:03;;;;;;;4.72;1.00;;;;;;;;;;5026846;28;20057;-70
2024/04/05 12:24:30;;;;;;;3.95;1.20;;;;;;;;;;5004209;28;20060;-71
2024/04/05 12:26:58;;;;;;;3.60;1.00;;;;;;;;;;5023130;28;20076;-71
2024/04/05 12:29:25;;;;;;;3.30;1.30;;;;;;;;;;5040091;28;20077;-71
2024/04/05 12:31:54;;;;;;;5.32;1.15;;;;;;;;;;5019901;28;20050;-69
2024/04/05 12:34:20;;;;;;;;;;;;;;;;;;5010846;28;20064;-69
2024/04/05 12:36:46;;;;;;;4.82;1.00;;;;;;;;;;5025503;28;19925;-73
2024/04/05 12:39:24;;;;;;;7.25;1.08;;;;;;;;;;5036223;28;20057;-71
2024/04/05 12:41:51;;;;;;;3.70;1.17;;;;;;;;;;5037628;28;20091;-68
2024/04/05 12:44:20;;;;;;;7.13;1.30;;;;;;;;;;5015584;28;20094;-69
2024/04/05 12:46:46;;;;;;;5.10;1.00;;;;;;;;;;5042469;28;20069;-69
2024/04/05 12:49:15;;;;;;;2.65;0.95;;;;;;;;;;5043292;28;20114;-69
2024/04/05 12:51:41;;;;;;;1.95;1.20;;;;;;;;;;5029870;28;20182;-68
2024/04/05 12:54:10;;;;;;;6.32;1.40;;;;;;;;;;5026029;28;20085;-67
2024/04/05 12:56:36;;;;;;;3.70;1.27;;;;;;;;;;5017728;28;20050;-72
2024/04/05 12:59:03;;;;;;;4.70;1.20;;;;;;;;;;5038101;28;20040;-69
2024/04/05 13:01:29;;;;;;;5.45;1.52;;;;;;;;;;5030739;28;20110;-71
2024/04/05 13:03:56;;;;;;;7.55;1.30;;;;;;;;;;5046946;28;20038;-71
2024/04/05 13:06:23;;;;;;;5.47;1.33;;;;;;;;;;5025856;28;20045;-69
2024/04/05 13:08:50;;;;;;;4.93;1.10;;;;;;;;;;5039412;28;20102;-68
2024/04/05 13:11:16;;;;;;;6.28;1.33;;;;;;;;;;5040597;28;20076;-68
2024/04/05 13:13:46;;;;;;;3.08;1.10;;;;;;;;;;5035073;28;20057;-69
2024/04/05 13:16:14;;;;;;;3.97;1.20;;;;;;;;;;5007579;28;20059;-70
2024/04/05 13:18:42;;;;;;;2.63;1.30;;;;;;;;;;5023637;28;20064;-69
2024/04/05 13:21:08;;;;;;;5.38;1.40;;;;;;;;;;5025301;28;20072;-68
2024/04/05 13:23:37;;;;;;;7.93;1.27;;;;;;;;;;5035647;28;20059;-71
2024/04/05 13:26:09;;;;;;;6.78;1.42;;;;;;;;;;5047016;28;20044;-68
2024/04/05 13:28:36;;;;;;;4.18;1.45;;;;;;;;;;5022246;28;20111;-68
2024/04/05 13:31:04;;;;;;;4.75;1.15;;;;;;;;;;5028728;28;20057;-70
2024/04/05 13:33:30;;;;;;;3.97;1.20;;;;;;;;;;5035019;28;20055;-67
2024/04/05 13:36:03;;;;;;;4.80;1.50;;;;;;;;;;5019532;28;20304;-69
2024/04/05 13:38:30;;;;;;;6.97;1.80;;;;;;;;;;5034740;28;20235;-70
2024/04/05 13:40:57;;;;;;;6.20;1.50;;;;;;;;;;5023114;28;20064;-71
2024/04/05 13:43:24;;;;;;;6.05;1.73;;;;;;;;;;5028255;28;20068;-70
2024/04/05 13:45:50;;;;;;;3.95;1.23;;;;;;;;;;5016740;28;20046;-70
2024/04/05 13:48:18;;;;;;;3.25;1.35;;;;;;;;;;5034964;28;20072;-69
2024/04/05 13:50:45;;;;;;;2.42;1.30;;;;;;;;;;5020985;28;20041;-70
2024/04/05 13:53:12;;;;;;;4.05;1.40;;;;;;;;;;5048776;28;20057;-70
2024/04/05 13:55:37;;;;;;;1.73;1.10;;;;;;;;;;5015911;28;20049;-69
2024/04/05 13:58:07;;;;;;;5.60;1.58;;;;;;;;;;5047115;28;20070;-70
2024/04/05 14:00:34;;;;;;;3.85;1.40;;;;;;;;;;5029503;28;20049;-69
2024/04/05 14:03:00;;;;;;;3.47;1.20;;;;;;;;;;5026494;28;20053;-70
2024/04/05 14:05:26;;;;;;;6.00;1.27;;;;;;;;;;5007431;28;20198;-69
2024/04/05 14:07:53;;;;;;;5.65;1.27;;;;;;;;;;5033711;28;20053;-67
2024/04/05 14:10:19;;;;;;;5.53;1.40;;;;;;;;;;5027350;28;20149;-70
2024/04/05 14:12:46;;;;;;;8.75;1.50;;;;;;;;;;5042596;28;20061;-69
2024/04/05 14:15:15;;;;;;;3.42;1.10;;;;;;;;;;5024741;28;20100;-69
2024/04/05 14:17:42;;;;;;;2.85;1.20;;;;;;;;;;5030014;28;20041;-69
2024/04/05 14:20:09;;;;;;;5.43;1.40;;;;;;;;;;5031837;28;20061;-69
2024/04/05 14:22:36;;;;;;;5.20;1.03;;;;;;;;;;5020363;28;21044;-69
2024/04/05 14:25:09;;;;;;;5.50;1.33;;;;;;;;;;5031029;28;20063;-70
2024/04/05 14:27:37;;;;;;;4.32;1.13;;;;;;;;;;5028564;28;20159;-68
2024/04/05 14:30:05;;;;;;;4.75;1.00;;;;;;;;;;5037125;28;20045;-70
2024/04/05 14:32:36;;;;;;;6.88;1.63;;;;;;;;;;5021480;28;20080;-68
2024/04/05 14:35:04;;;;;;;5.90;1.30;;;;;;;;;;5024642;28;20045;-66
2024/04/05 14:37:31;;;;;;;4.30;1.27;;;;;;;;;;5038585;28;20053;-68
2024/04/05 14:39:57;;;;;;;2.67;0.82;;;;;;;;;;5018888;28;20072;-70